createdAt,value
2023-01-09T00:01:32.858Z,78.21
2023-01-09T00:04:07.837Z,78.12
2023-01-09T00:06:46.489Z,78.01
2023-01-09T00:09:26.652Z,78.32
2023-01-09T00:12:02.834Z,78.34
2023-01-09T00:18:00.388Z,78.37
2023-01-09T00:20:34.043Z,78.24
2023-01-09T00:23:16.686Z,78.21
2023-01-09T00:26:07.737Z,78.33
2023-01-09T00:28:50.290Z,78.33
2023-01-09T00:31:31.028Z,78.21
2023-01-09T00:34:13.979Z,78.24
2023-01-09T00:37:03.774Z,78.18
2023-01-09T00:39:38.373Z,78.10
2023-01-09T00:42:22.644Z,78.04
2023-01-09T00:45:06.889Z,78.05
2023-01-09T00:47:46.577Z,78.29
2023-01-09T00:50:46.692Z,78.20
2023-01-09T00:53:27.625Z,78.09
2023-01-09T00:56:13.731Z,78.09
2023-01-09T00:58:56.960Z,77.86
2023-01-09T01:01:31.993Z,77.81
2023-01-09T01:04:27.342Z,77.79
2023-01-09T01:07:23.461Z,77.69
2023-01-09T01:10:04.395Z,77.62
2023-01-09T01:12:46.450Z,77.51
2023-01-09T01:15:26.764Z,77.50
2023-01-09T01:18:06.377Z,77.43
2023-01-09T01:20:49.204Z,77.30
2023-01-09T01:23:35.372Z,77.36
2023-01-09T01:26:23.679Z,77.42
2023-01-09T01:29:05.576Z,77.23
2023-01-09T01:31:56.685Z,77.57
2023-01-09T01:34:32.702Z,77.50
2023-01-09T01:37:13.873Z,77.66
2023-01-09T01:40:01.477Z,77.60
2023-01-09T01:42:37.330Z,77.75
2023-01-09T01:45:16.207Z,77.82
2023-01-09T01:47:58.698Z,77.72
2023-01-09T01:50:51.199Z,77.67
2023-01-09T01:53:38.688Z,77.70
2023-01-09T01:56:25.885Z,77.80
2023-01-09T01:59:30.999Z,77.96
2023-01-09T02:02:06.589Z,78.01
2023-01-09T02:04:47.346Z,78.16
2023-01-09T02:07:22.361Z,78.56
2023-01-09T02:10:03.524Z,78.69
2023-01-09T02:12:41.958Z,78.68
2023-01-09T02:15:30.047Z,78.50
2023-01-09T02:18:21.113Z,78.42
2023-01-09T02:24:44.463Z,78.56
2023-01-09T02:28:10.324Z,78.42
2023-01-09T02:31:13.051Z,78.13
2023-01-09T02:34:13.264Z,78.46
2023-01-09T02:36:58.869Z,78.45
2023-01-09T02:39:46.058Z,78.65
2023-01-09T02:42:35.851Z,78.78
2023-01-09T02:45:22.066Z,78.89
2023-01-09T02:47:57.253Z,78.96
2023-01-09T02:50:58.704Z,79.13
2023-01-09T02:53:51.164Z,79.25
2023-01-09T02:56:45.003Z,79.41
2023-01-09T02:59:35.701Z,79.37
2023-01-09T03:02:27.398Z,79.39
2023-01-09T03:05:30.564Z,79.40
2023-01-09T03:08:21.004Z,79.37
2023-01-09T03:11:09.629Z,79.58
2023-01-09T03:13:53.046Z,79.36
2023-01-09T03:16:40.598Z,79.18
2023-01-09T03:19:19.792Z,78.98
2023-01-09T03:21:55.910Z,78.96
2023-01-09T03:24:33.903Z,78.80
2023-01-09T03:27:17.087Z,78.73
2023-01-09T03:29:57.114Z,78.79
2023-01-09T03:32:32.718Z,78.75
2023-01-09T03:35:11.373Z,78.56
2023-01-09T03:37:52.010Z,78.39
2023-01-09T03:40:46.813Z,78.06
2023-01-09T03:43:25.624Z,77.79
2023-01-09T03:46:03.817Z,77.65
2023-01-09T03:48:38.121Z,77.63
2023-01-09T03:51:17.287Z,77.66
2023-01-09T03:53:59.079Z,77.69
2023-01-09T03:56:35.180Z,77.71
2023-01-09T03:59:12.598Z,77.62
2023-01-09T04:01:48.734Z,77.45
2023-01-09T04:04:25.419Z,77.23
2023-01-09T04:07:14.615Z,77.04
2023-01-09T04:09:56.425Z,77.16
2023-01-09T04:12:36.877Z,77.19
2023-01-09T04:15:15.268Z,77.21
2023-01-09T04:17:50.342Z,77.06
2023-01-09T04:20:30.453Z,77.20
2023-01-09T04:23:05.938Z,77.40
2023-01-09T04:25:53.853Z,77.52
2023-01-09T04:28:34.090Z,77.36
2023-01-09T04:31:09.009Z,77.25
2023-01-09T04:33:43.747Z,77.06
2023-01-09T04:36:27.860Z,76.89
2023-01-09T04:39:01.826Z,76.65
2023-01-09T04:41:51.425Z,76.57
2023-01-09T04:44:27.197Z,76.46
2023-01-09T04:50:33.411Z,76.00
2023-01-09T04:52:54.550Z,75.96
2023-01-09T04:56:02.249Z,75.97
2023-01-09T04:58:47.210Z,75.94
2023-01-09T05:01:31.053Z,75.88
2023-01-09T05:07:05.687Z,76.05
2023-01-09T05:09:48.369Z,75.76
2023-01-09T05:12:38.384Z,75.90
2023-01-09T05:15:27.786Z,76.01
2023-01-09T05:18:06.712Z,75.75
2023-01-09T05:21:25.960Z,75.80
2023-01-09T05:24:27.717Z,75.68
2023-01-09T05:27:08.383Z,75.56
2023-01-09T05:29:53.986Z,75.55
2023-01-09T05:32:44.681Z,75.36
2023-01-09T05:35:35.513Z,75.20
2023-01-09T05:38:58.815Z,75.07
2023-01-09T05:41:28.524Z,75.15
2023-01-09T05:44:09.969Z,75.21
2023-01-09T05:46:49.878Z,75.09
2023-01-09T05:49:28.157Z,74.94
2023-01-09T05:52:12.288Z,74.84
2023-01-09T05:55:05.976Z,74.73
2023-01-09T05:57:48.952Z,74.70
2023-01-09T06:01:11.249Z,74.58
2023-01-09T06:04:08.943Z,74.48
2023-01-09T06:07:05.549Z,74.58
2023-01-09T06:10:05.484Z,74.47
2023-01-09T06:12:53.653Z,74.69
2023-01-09T06:15:56.519Z,74.77
2023-01-09T06:18:35.027Z,74.71
2023-01-09T06:21:26.882Z,75.00
2023-01-09T06:24:23.540Z,75.29
2023-01-09T06:27:05.192Z,75.41
2023-01-09T06:29:58.476Z,75.58
2023-01-09T06:32:37.265Z,75.68
2023-01-09T06:35:15.100Z,75.81
2023-01-09T06:37:50.398Z,75.99
2023-01-09T06:40:25.608Z,75.99
2023-01-09T06:43:07.518Z,76.09
2023-01-09T06:45:44.996Z,75.50
2023-01-09T06:48:34.221Z,75.42
2023-01-09T06:51:06.930Z,75.55
2023-01-09T06:57:15.386Z,75.05
2023-01-09T07:00:04.355Z,74.67
2023-01-09T07:02:45.975Z,74.37
2023-01-09T07:05:21.790Z,73.73
2023-01-09T07:08:06.080Z,73.05
2023-01-09T07:10:46.522Z,73.19
2023-01-09T07:13:21.707Z,72.83
2023-01-09T07:16:01.338Z,72.81
2023-01-09T07:18:40.431Z,72.32
2023-01-09T07:21:18.780Z,72.16
2023-01-09T07:23:55.621Z,71.91
2023-01-09T07:26:34.788Z,71.90
2023-01-09T07:29:41.762Z,71.97
2023-01-09T07:32:39.991Z,71.74
2023-01-09T07:35:15.656Z,71.48
2023-01-09T07:37:58.348Z,71.33
2023-01-09T07:40:36.483Z,70.93
2023-01-09T07:43:12.315Z,70.28
2023-01-09T07:45:47.911Z,70.67
2023-01-09T07:48:33.107Z,70.14
2023-01-09T07:51:35.867Z,69.37
2023-01-09T07:54:16.561Z,68.72
2023-01-09T07:57:00.602Z,68.96
2023-01-09T07:59:43.822Z,68.90
2023-01-09T08:02:22.701Z,68.91
2023-01-09T08:05:01.045Z,68.43
2023-01-09T08:07:38.521Z,67.82
2023-01-09T08:10:36.584Z,67.86
2023-01-09T08:13:34.641Z,67.52
2023-01-09T08:16:16.490Z,67.08
2023-01-09T08:22:34.197Z,66.25
2023-01-09T08:25:12.216Z,65.76
2023-01-09T08:30:47.619Z,65.30
2023-01-09T08:33:47.055Z,64.67
2023-01-09T08:36:40.082Z,64.78
2023-01-09T08:39:35.520Z,64.05
2023-01-09T08:45:44.697Z,61.70
2023-01-09T08:51:38.116Z,60.97
2023-01-09T08:54:12.142Z,61.59
2023-01-09T08:56:46.581Z,61.85
2023-01-09T09:02:49.344Z,62.18
2023-01-09T09:05:50.632Z,62.37
2023-01-09T09:08:29.049Z,61.60
2023-01-09T09:11:14.793Z,61.28
2023-01-09T09:13:59.512Z,60.56
2023-01-09T09:16:54.808Z,60.56
2023-01-09T09:19:29.251Z,60.63
2023-01-09T09:22:11.992Z,60.63
2023-01-09T09:25:19.781Z,60.17
2023-01-09T09:28:09.175Z,60.19
2023-01-09T09:30:56.566Z,60.19
2023-01-09T09:33:56.638Z,59.54
2023-01-09T09:40:18.675Z,59.40
2023-01-09T09:43:32.278Z,60.24
2023-01-09T09:46:30.362Z,60.37
2023-01-09T09:49:36.574Z,60.37
2023-01-09T09:55:43.050Z,60.00
2023-01-09T09:58:45.242Z,59.83
2023-01-09T10:01:32.299Z,59.75
2023-01-09T10:04:17.789Z,59.78
2023-01-09T10:07:01.454Z,59.79
2023-01-09T10:12:57.408Z,59.86
2023-01-09T10:15:54.920Z,59.70
2023-01-09T10:19:05.595Z,59.70
2023-01-09T10:22:25.177Z,59.51
2023-01-09T10:25:24.144Z,59.27
2023-01-09T10:28:38.785Z,58.80
2023-01-09T10:31:22.569Z,59.12
2023-01-09T10:34:34.454Z,59.65
2023-01-09T10:37:19.932Z,59.37
2023-01-09T10:40:33.444Z,59.25
2023-01-09T10:43:29.303Z,59.28
2023-01-09T10:46:06.244Z,58.63
2023-01-09T10:48:42.020Z,59.05
2023-01-09T10:51:25.637Z,58.89
2023-01-09T10:53:58.684Z,58.95
2023-01-09T10:56:37.927Z,58.11
2023-01-09T10:59:11.425Z,57.35
2023-01-09T11:01:44.720Z,56.68
2023-01-09T11:04:34.291Z,55.72
2023-01-09T11:07:18.044Z,55.85
2023-01-09T11:10:08.645Z,56.01
2023-01-09T11:12:42.312Z,56.19
2023-01-09T11:15:28.923Z,55.75
2023-01-09T11:18:21.370Z,55.68
2023-01-09T11:20:54.807Z,55.62
2023-01-09T11:23:35.092Z,55.91
2023-01-09T11:26:11.004Z,56.21
2023-01-09T11:28:43.917Z,57.06
2023-01-09T11:31:18.483Z,57.38
2023-01-09T11:33:52.053Z,57.01
2023-01-09T11:36:26.440Z,57.01
2023-01-09T11:39:02.873Z,56.99
2023-01-09T11:41:37.479Z,56.71
2023-01-09T11:44:12.716Z,56.83
2023-01-09T11:46:47.022Z,56.90
2023-01-09T11:49:31.960Z,56.84
2023-01-09T11:52:21.122Z,56.90
2023-01-09T11:55:04.855Z,57.57
2023-01-09T11:57:37.689Z,58.23
2023-01-09T12:00:31.148Z,58.31
2023-01-09T12:03:20.327Z,58.29
2023-01-09T12:06:06.532Z,58.15
2023-01-09T12:08:56.712Z,58.18
2023-01-09T12:11:46.250Z,57.80
2023-01-09T12:14:47.872Z,57.22
2023-01-09T12:17:26.071Z,56.81
2023-01-09T12:20:18.751Z,57.04
2023-01-09T12:23:32.769Z,57.25
2023-01-09T12:26:19.171Z,57.17
2023-01-09T12:29:03.009Z,57.21
2023-01-09T12:31:46.742Z,57.33
2023-01-09T12:35:00.628Z,57.25
2023-01-09T12:38:06.385Z,57.39
2023-01-09T12:40:50.608Z,57.61
2023-01-09T12:43:35.512Z,57.64
2023-01-09T12:46:19.339Z,57.86
2023-01-09T12:49:17.590Z,58.17
2023-01-09T12:52:10.934Z,58.48
2023-01-09T12:54:58.340Z,58.58
2023-01-09T12:57:44.934Z,58.63
2023-01-09T13:00:23.666Z,58.19
2023-01-09T13:03:12.983Z,57.55
2023-01-09T13:05:53.851Z,57.65
2023-01-09T13:08:40.290Z,57.86
2023-01-09T13:11:24.081Z,58.10
2023-01-09T13:14:17.980Z,58.09
2023-01-09T13:16:54.678Z,58.14
2023-01-09T13:19:39.798Z,57.78
2023-01-09T13:22:14.899Z,57.64
2023-01-09T13:25:17.265Z,57.31
2023-01-09T13:27:58.193Z,57.66
2023-01-09T13:30:54.586Z,57.90
2023-01-09T13:33:35.337Z,57.93
2023-01-09T13:36:09.972Z,57.96
2023-01-09T13:38:43.785Z,58.05
2023-01-09T13:41:36.680Z,58.26
2023-01-09T13:44:28.050Z,58.36
2023-01-09T13:47:03.742Z,58.50
2023-01-09T13:49:52.646Z,58.34
2023-01-09T13:52:43.731Z,58.54
2023-01-09T13:55:25.941Z,58.77
2023-01-09T13:58:15.432Z,58.84
2023-01-09T14:00:51.905Z,58.60
2023-01-09T14:03:40.416Z,58.53
2023-01-09T14:06:17.786Z,58.33
2023-01-09T14:08:55.969Z,58.26
2023-01-09T14:11:29.698Z,58.01
2023-01-09T14:14:05.939Z,57.61
2023-01-09T14:16:39.923Z,57.73
2023-01-09T14:19:41.207Z,57.71
2023-01-09T14:22:38.094Z,57.76
2023-01-09T14:25:12.969Z,57.76
2023-01-09T14:28:11.745Z,57.98
2023-01-09T14:31:02.344Z,57.85
2023-01-09T14:33:40.171Z,58.09
2023-01-09T14:36:23.261Z,58.46
2023-01-09T14:39:04.674Z,58.70
2023-01-09T14:42:01.700Z,59.16
2023-01-09T14:45:01.106Z,59.56
2023-01-09T14:47:41.623Z,59.98
2023-01-09T14:50:38.270Z,60.48
2023-01-09T14:53:25.875Z,60.79
2023-01-09T14:56:06.378Z,61.03
2023-01-09T14:58:40.603Z,61.29
2023-01-09T15:01:21.580Z,61.71
2023-01-09T15:04:02.056Z,61.97
2023-01-09T15:06:39.096Z,62.24
2023-01-09T15:09:42.345Z,62.55
2023-01-09T15:12:22.936Z,62.80
2023-01-09T15:15:00.049Z,62.79
2023-01-09T15:17:36.832Z,63.23
2023-01-09T15:20:21.679Z,63.43
2023-01-09T15:22:55.951Z,63.38
2023-01-09T15:25:38.467Z,63.60
2023-01-09T15:28:22.910Z,63.76
2023-01-09T15:31:04.438Z,63.85
2023-01-09T15:33:40.804Z,64.01
2023-01-09T15:36:24.866Z,64.25
2023-01-09T15:38:59.584Z,64.33
2023-01-09T15:41:52.213Z,64.33
2023-01-09T15:44:30.565Z,64.18
2023-01-09T15:47:07.279Z,64.04
2023-01-09T15:49:40.995Z,64.01
2023-01-09T15:52:18.646Z,64.01
2023-01-09T15:54:52.566Z,63.67
2023-01-09T15:57:33.488Z,63.49
2023-01-09T16:00:35.687Z,63.49
2023-01-09T16:03:24.027Z,63.28
2023-01-09T16:06:05.875Z,63.02
2023-01-09T16:08:46.804Z,62.95
2023-01-09T16:11:37.939Z,62.68
2023-01-09T16:14:24.377Z,62.64
2023-01-09T16:17:07.121Z,62.39
2023-01-09T16:19:50.775Z,62.26
2023-01-09T16:22:28.648Z,62.25
2023-01-09T16:25:34.797Z,62.05
2023-01-09T16:28:22.606Z,62.20
2023-01-09T16:31:10.091Z,62.09
2023-01-09T16:33:47.021Z,62.13
2023-01-09T16:36:22.156Z,62.01
2023-01-09T16:38:57.224Z,61.85
2023-01-09T16:41:50.311Z,61.66
2023-01-09T16:44:24.217Z,61.75
2023-01-09T16:46:58.810Z,61.68
2023-01-09T16:49:33.477Z,61.59
2023-01-09T16:52:12.401Z,61.49
2023-01-09T16:54:48.238Z,61.33
2023-01-09T16:57:23.889Z,61.34
2023-01-09T17:00:00.830Z,61.30
2023-01-09T17:02:35.125Z,61.31
2023-01-09T17:05:09.389Z,61.31
2023-01-09T17:07:44.217Z,61.30
2023-01-09T17:10:22.454Z,61.18
2023-01-09T17:12:57.442Z,61.35
2023-01-09T17:15:32.580Z,61.28
2023-01-09T17:18:07.171Z,61.22
2023-01-09T17:20:43.608Z,61.17
2023-01-09T17:23:17.731Z,61.26
2023-01-09T17:26:15.314Z,61.25
2023-01-09T17:28:52.380Z,61.27
2023-01-09T17:31:26.452Z,61.23
2023-01-09T17:34:01.216Z,61.34
2023-01-09T17:36:35.720Z,61.34
2023-01-09T17:39:10.979Z,61.22
2023-01-09T17:41:44.863Z,61.15
2023-01-09T17:44:19.177Z,61.26
2023-01-09T17:46:53.085Z,61.27
2023-01-09T17:49:27.953Z,61.02
2023-01-09T17:52:01.827Z,61.20
2023-01-09T17:54:35.883Z,61.11
2023-01-09T17:57:12.353Z,61.06
2023-01-09T17:59:46.804Z,61.20
2023-01-09T18:02:21.258Z,61.11
2023-01-09T18:04:55.656Z,61.01
2023-01-09T18:07:29.798Z,60.93
2023-01-09T18:10:02.639Z,60.84
2023-01-09T18:12:48.980Z,60.69
2023-01-09T18:15:24.745Z,60.81
2023-01-09T18:17:59.613Z,60.77
2023-01-09T18:20:33.527Z,60.82
2023-01-09T18:23:09.347Z,60.63
2023-01-09T18:25:44.413Z,60.62
2023-01-09T18:28:18.882Z,60.66
2023-01-09T18:30:53.425Z,60.57
2023-01-09T18:33:30.141Z,60.59
2023-01-09T18:36:12.039Z,60.59
2023-01-09T18:38:49.271Z,60.40
2023-01-09T18:41:24.420Z,60.27
2023-01-09T18:44:02.843Z,59.96
2023-01-09T18:46:41.002Z,59.79
2023-01-09T18:49:14.831Z,59.62
2023-01-09T18:51:48.897Z,59.43
2023-01-09T18:54:22.850Z,59.26
2023-01-09T18:56:57.246Z,59.23
2023-01-09T18:59:33.228Z,59.11
2023-01-09T19:02:07.352Z,59.16
2023-01-09T19:04:41.941Z,59.32
2023-01-09T19:07:16.709Z,59.41
2023-01-09T19:09:50.849Z,59.37
2023-01-09T19:12:27.771Z,59.33
2023-01-09T19:15:02.343Z,59.49
2023-01-09T19:17:37.049Z,59.61
2023-01-09T19:20:11.599Z,59.57
2023-01-09T19:22:45.781Z,59.46
2023-01-09T19:25:19.704Z,59.43
2023-01-09T19:27:55.442Z,59.30
2023-01-09T19:30:30.644Z,59.21
2023-01-09T19:33:05.401Z,59.35
2023-01-09T19:35:39.764Z,59.36
2023-01-09T19:38:13.956Z,59.48
2023-01-09T19:40:47.892Z,59.40
2023-01-09T19:43:27.631Z,59.49
2023-01-09T19:46:01.485Z,59.47
2023-01-09T19:48:35.649Z,59.71
2023-01-09T19:51:11.468Z,59.91
2023-01-09T19:53:45.692Z,59.83
2023-01-09T19:56:23.611Z,60.04
2023-01-09T19:59:04.222Z,60.15
2023-01-09T20:01:42.040Z,60.27
2023-01-09T20:04:17.607Z,60.40
2023-01-09T20:06:53.584Z,60.57
2023-01-09T20:09:29.308Z,60.83
2023-01-09T20:12:05.286Z,61.06
2023-01-09T20:14:40.014Z,61.25
2023-01-09T20:17:14.691Z,61.33
2023-01-09T20:19:48.439Z,61.39
2023-01-09T20:22:21.424Z,61.69
2023-01-09T20:24:55.067Z,61.74
2023-01-09T20:27:28.838Z,61.95
2023-01-09T20:30:01.805Z,62.04
2023-01-09T20:32:37.352Z,62.24
2023-01-09T20:35:11.680Z,62.24
2023-01-09T20:37:45.355Z,62.34
2023-01-09T20:40:18.594Z,62.39
2023-01-09T20:42:52.080Z,63.19
2023-01-09T20:45:27.550Z,62.85
2023-01-09T20:48:01.699Z,62.81
2023-01-09T20:50:36.215Z,62.84
2023-01-09T20:53:10.057Z,63.00
2023-01-09T20:55:43.879Z,63.10
2023-01-09T20:58:18.071Z,63.17
2023-01-09T21:00:52.502Z,63.31
2023-01-09T21:03:26.574Z,63.41
2023-01-09T21:06:00.721Z,64.61
2023-01-09T21:08:35.343Z,64.02
2023-01-09T21:11:09.498Z,63.92
2023-01-09T21:13:44.468Z,63.97
2023-01-09T21:16:22.127Z,64.02
2023-01-09T21:18:56.228Z,64.06
2023-01-09T21:21:30.225Z,64.93
2023-01-09T21:24:04.751Z,64.65
2023-01-09T21:26:38.920Z,64.54
2023-01-09T21:29:15.752Z,64.60
2023-01-09T21:31:50.407Z,64.69
2023-01-09T21:34:24.659Z,64.81
2023-01-09T21:36:58.724Z,64.96
2023-01-09T21:39:33.034Z,65.00
2023-01-09T21:42:24.959Z,65.13
2023-01-09T21:45:15.895Z,65.23
2023-01-09T21:47:49.791Z,65.37
2023-01-09T21:50:22.719Z,65.51
2023-01-09T21:52:56.625Z,65.70
2023-01-09T21:55:32.378Z,65.90
2023-01-09T21:58:06.421Z,66.09
2023-01-09T22:00:41.311Z,66.33
2023-01-09T22:03:19.071Z,66.52
2023-01-09T22:05:52.621Z,66.59
2023-01-09T22:08:26.439Z,66.77
2023-01-09T22:11:01.548Z,66.89
2023-01-09T22:13:35.480Z,66.93
2023-01-09T22:16:11.416Z,67.05
2023-01-09T22:18:45.244Z,67.17
2023-01-09T22:21:19.417Z,67.30
2023-01-09T22:23:52.454Z,67.33
2023-01-09T22:26:26.238Z,67.40
2023-01-09T22:29:00.165Z,67.47
2023-01-09T22:31:35.250Z,67.48
2023-01-09T22:34:10.923Z,67.45
2023-01-09T22:36:46.182Z,67.38
2023-01-09T22:39:21.139Z,67.42
2023-01-09T22:41:55.685Z,67.41
2023-01-09T22:44:29.377Z,67.40
2023-01-09T22:47:04.787Z,67.36
2023-01-09T22:49:52.204Z,67.36
2023-01-09T22:52:14.899Z,67.32
2023-01-09T22:54:49.729Z,67.35
2023-01-09T22:57:24.527Z,67.37
2023-01-09T22:59:57.409Z,67.44
2023-01-09T23:02:31.150Z,67.45
2023-01-09T23:05:05.176Z,67.45
2023-01-09T23:07:39.850Z,67.41
2023-01-09T23:10:16.067Z,67.42
2023-01-09T23:12:50.553Z,67.41
2023-01-09T23:15:24.773Z,67.30
2023-01-09T23:17:57.681Z,67.29
2023-01-09T23:20:31.257Z,67.20
2023-01-09T23:23:06.197Z,67.16
2023-01-09T23:25:40.010Z,67.21
2023-01-09T23:28:13.692Z,67.26
2023-01-09T23:30:50.603Z,67.25
2023-01-09T23:33:24.389Z,67.37
2023-01-09T23:35:58.907Z,67.46
2023-01-09T23:38:32.621Z,67.55
2023-01-09T23:41:08.118Z,67.66
2023-01-09T23:43:44.562Z,67.85
2023-01-09T23:46:18.316Z,68.04
2023-01-09T23:48:52.073Z,68.27
2023-01-09T23:51:26.284Z,68.50
2023-01-09T23:54:00.306Z,68.71
2023-01-09T23:56:34.850Z,68.91
2023-01-09T23:59:12.985Z,69.11
